createdAt,value
2018-12-11T00:01:17.100Z,4.07
2018-12-11T00:03:46.148Z,4.37
2018-12-11T00:06:16.044Z,4.20
2018-12-11T00:08:44.936Z,3.57
2018-12-11T00:11:13.873Z,3.73
2018-12-11T00:13:42.729Z,3.30
2018-12-11T00:16:11.612Z,3.40
2018-12-11T00:18:40.425Z,4.17
2018-12-11T00:21:09.203Z,3.97
2018-12-11T00:23:37.986Z,5.73
2018-12-11T00:26:06.815Z,3.57
2018-12-11T00:28:35.628Z,3.73
2018-12-11T00:31:04.756Z,3.70
2018-12-11T00:33:34.308Z,4.10
2018-12-11T00:36:03.122Z,3.47
2018-12-11T00:38:31.919Z,4.83
2018-12-11T00:41:00.690Z,3.93
2018-12-11T00:43:29.503Z,3.57
2018-12-11T00:45:58.311Z,4.07
2018-12-11T00:48:27.369Z,3.93
2018-12-11T00:50:56.189Z,3.57
2018-12-11T00:53:25.074Z,4.03
2018-12-11T00:55:53.866Z,3.80
2018-12-11T00:58:22.780Z,3.73
2018-12-11T01:00:51.632Z,2.77
2018-12-11T01:03:20.418Z,3.50
2018-12-11T01:05:49.240Z,3.90
2018-12-11T01:08:19.772Z,3.30
2018-12-11T01:10:48.606Z,3.87
2018-12-11T01:13:18.274Z,3.13
2018-12-11T01:15:47.043Z,3.47
2018-12-11T01:18:16.921Z,3.37
2018-12-11T01:20:45.748Z,3.47
2018-12-11T01:23:14.589Z,4.07
2018-12-11T01:25:43.450Z,3.47
2018-12-11T01:28:12.284Z,3.93
2018-12-11T01:30:41.128Z,3.97
2018-12-11T01:33:09.948Z,4.00
2018-12-11T01:35:39.051Z,3.67
2018-12-11T01:38:08.873Z,3.90
2018-12-11T01:40:37.661Z,3.90
2018-12-11T01:43:06.448Z,4.40
2018-12-11T01:45:35.306Z,3.87
2018-12-11T01:48:04.135Z,3.73
2018-12-11T01:50:33.817Z,3.20
2018-12-11T01:53:02.648Z,3.87
2018-12-11T01:55:31.464Z,3.63
2018-12-11T01:58:00.251Z,3.47
2018-12-11T02:00:29.094Z,2.83
2018-12-11T02:02:57.910Z,3.47
2018-12-11T02:05:26.703Z,2.80
2018-12-11T02:07:55.486Z,3.63
2018-12-11T02:10:24.335Z,3.70
2018-12-11T02:12:53.168Z,3.60
2018-12-11T02:15:22.004Z,3.50
2018-12-11T02:17:50.839Z,3.47
2018-12-11T02:20:20.237Z,3.60
2018-12-11T02:22:49.103Z,3.83
2018-12-11T02:25:17.917Z,3.40
2018-12-11T02:27:46.767Z,3.87
2018-12-11T02:30:15.795Z,4.10
2018-12-11T02:32:45.099Z,3.73
2018-12-11T02:35:13.878Z,4.70
2018-12-11T02:37:42.676Z,5.77
2018-12-11T02:40:11.472Z,3.93
2018-12-11T02:42:40.272Z,4.17
2018-12-11T02:45:09.305Z,4.57
2018-12-11T02:47:38.139Z,4.23
2018-12-11T02:50:08.764Z,4.60
2018-12-11T02:52:37.535Z,5.03
2018-12-11T02:55:06.413Z,3.93
2018-12-11T02:57:35.244Z,5.53
2018-12-11T03:00:05.071Z,4.83
2018-12-11T03:02:34.507Z,3.57
2018-12-11T03:05:03.285Z,4.27
2018-12-11T03:07:32.960Z,4.17
2018-12-11T03:10:01.746Z,4.03
2018-12-11T03:12:30.996Z,4.20
2018-12-11T03:14:59.825Z,3.47
2018-12-11T03:17:28.634Z,4.30
2018-12-11T03:19:58.012Z,3.20
2018-12-11T03:22:27.025Z,3.37
2018-12-11T03:24:55.852Z,2.93
2018-12-11T03:27:24.765Z,3.80
2018-12-11T03:29:53.575Z,3.30
2018-12-11T03:32:22.394Z,2.80
2018-12-11T03:34:51.258Z,3.00
2018-12-11T03:37:20.052Z,3.30
2018-12-11T03:39:48.853Z,3.33
2018-12-11T03:42:17.630Z,3.27
2018-12-11T03:44:47.311Z,2.90
2018-12-11T03:47:17.223Z,3.53
2018-12-11T03:49:46.081Z,3.37
2018-12-11T03:52:21.190Z,3.63
2018-12-11T03:54:43.816Z,3.00
2018-12-11T03:57:13.767Z,3.20
2018-12-11T03:59:44.879Z,3.37
2018-12-11T04:02:13.900Z,2.70
2018-12-11T04:04:42.845Z,3.73
2018-12-11T04:07:11.868Z,3.00
2018-12-11T04:09:41.058Z,3.67
2018-12-11T04:12:10.271Z,3.43
2018-12-11T04:14:39.268Z,3.50
2018-12-11T04:17:08.952Z,3.43
2018-12-11T04:19:37.906Z,3.03
2018-12-11T04:22:08.093Z,3.27
2018-12-11T04:24:37.053Z,2.87
2018-12-11T04:27:05.968Z,2.43
2018-12-11T04:29:35.949Z,2.93
2018-12-11T04:32:04.981Z,2.60
2018-12-11T04:34:33.928Z,2.67
2018-12-11T04:37:02.965Z,2.63
2018-12-11T04:39:34.103Z,2.60
2018-12-11T04:42:00.835Z,2.30
2018-12-11T04:44:29.800Z,3.97
2018-12-11T04:46:58.726Z,2.63
2018-12-11T04:49:27.670Z,2.53
2018-12-11T04:51:56.667Z,3.20
2018-12-11T04:54:25.685Z,2.80
2018-12-11T04:56:56.750Z,3.20
2018-12-11T04:59:25.791Z,3.03
2018-12-11T05:02:02.320Z,2.43
2018-12-11T05:04:31.338Z,2.60
2018-12-11T05:07:00.251Z,2.73
2018-12-11T05:09:29.231Z,3.90
2018-12-11T05:11:58.570Z,2.80
2018-12-11T05:14:27.647Z,2.67
2018-12-11T05:16:56.656Z,2.83
2018-12-11T05:19:25.979Z,3.50
2018-12-11T05:21:54.923Z,3.03
2018-12-11T05:24:23.925Z,3.00
2018-12-11T05:26:52.915Z,4.10
2018-12-11T05:29:21.880Z,3.90
2018-12-11T05:31:50.875Z,3.13
2018-12-11T05:34:19.763Z,3.07
2018-12-11T05:36:48.708Z,3.53
2018-12-11T05:39:17.620Z,4.27
2018-12-11T05:41:46.576Z,3.13
2018-12-11T05:44:15.961Z,3.17
2018-12-11T05:46:44.887Z,3.20
2018-12-11T05:49:13.771Z,3.17
2018-12-11T05:51:42.669Z,2.93
2018-12-11T05:54:11.615Z,2.33
2018-12-11T05:56:41.037Z,2.70
2018-12-11T05:59:10.130Z,3.03
2018-12-11T06:01:39.418Z,3.93
2018-12-11T06:04:08.281Z,3.40
2018-12-11T06:06:37.173Z,3.40
2018-12-11T06:09:07.907Z,2.87
2018-12-11T06:11:37.631Z,2.53
2018-12-11T06:14:08.259Z,2.23
2018-12-11T06:16:37.060Z,2.23
2018-12-11T06:19:05.964Z,2.53
2018-12-11T06:21:34.848Z,2.43
2018-12-11T06:24:04.036Z,2.23
2018-12-11T06:26:32.935Z,2.07
2018-12-11T06:29:01.855Z,2.20
2018-12-11T06:31:30.701Z,2.23
2018-12-11T06:34:01.503Z,2.77
2018-12-11T06:36:31.349Z,2.17
2018-12-11T06:39:00.168Z,2.53
2018-12-11T06:41:28.998Z,2.53
2018-12-11T06:43:57.871Z,3.30
2018-12-11T06:46:26.735Z,3.17
2018-12-11T06:48:55.609Z,3.83
2018-12-11T06:51:24.622Z,3.83
2018-12-11T06:53:53.678Z,2.83
2018-12-11T06:56:22.491Z,3.17
2018-12-11T06:58:51.353Z,2.20
2018-12-11T07:01:20.173Z,2.40
2018-12-11T07:03:49.759Z,3.03
2018-12-11T07:06:19.152Z,2.77
2018-12-11T07:08:48.976Z,3.07
2018-12-11T07:13:53.115Z,5.33
2018-12-11T07:16:21.962Z,3.50
2018-12-11T07:18:50.785Z,2.60
2018-12-11T07:21:19.690Z,2.53
2018-12-11T07:23:48.502Z,2.97
2018-12-11T07:26:17.304Z,2.27
2018-12-11T07:31:21.491Z,3.77
2018-12-11T07:33:50.930Z,3.37
2018-12-11T07:36:19.149Z,3.40
2018-12-11T07:38:47.932Z,3.73
2018-12-11T07:41:16.755Z,2.97
2018-12-11T07:43:45.677Z,2.30
2018-12-11T07:46:14.573Z,2.57
2018-12-11T07:48:43.635Z,2.87
2018-12-11T07:51:12.405Z,3.13
2018-12-11T07:53:41.202Z,3.33
2018-12-11T07:56:10.284Z,2.93
2018-12-11T07:58:39.652Z,2.70
2018-12-11T08:01:09.117Z,3.20
2018-12-11T08:03:37.991Z,3.50
2018-12-11T08:06:07.847Z,2.63
2018-12-11T08:08:36.708Z,2.70
2018-12-11T08:11:05.570Z,2.90
2018-12-11T08:13:34.396Z,3.33
2018-12-11T08:16:03.206Z,4.23
2018-12-11T08:18:32.009Z,2.97
2018-12-11T08:21:00.856Z,3.00
2018-12-11T08:23:29.703Z,2.90
2018-12-11T08:25:58.500Z,3.20
2018-12-11T08:28:27.341Z,2.77
2018-12-11T08:30:56.256Z,2.57
2018-12-11T08:33:25.070Z,2.50
2018-12-11T08:35:53.888Z,2.53
2018-12-11T08:38:22.716Z,2.80
2018-12-11T08:40:52.119Z,1.97
2018-12-11T08:43:21.654Z,2.93
2018-12-11T08:45:50.498Z,2.77
2018-12-11T08:48:19.271Z,2.60
2018-12-11T08:50:48.113Z,2.23
2018-12-11T08:53:16.993Z,2.57
2018-12-11T08:55:45.792Z,2.23
2018-12-11T08:58:14.622Z,2.30
2018-12-11T09:00:44.147Z,3.30
2018-12-11T09:03:12.989Z,4.20
2018-12-11T09:05:41.806Z,3.50
2018-12-11T09:08:11.170Z,3.10
2018-12-11T09:10:39.975Z,3.07
2018-12-11T09:13:15.369Z,3.13
2018-12-11T09:15:44.811Z,3.03
2018-12-11T09:18:13.622Z,3.13
2018-12-11T09:20:42.459Z,3.50
2018-12-11T09:23:11.285Z,3.33
2018-12-11T09:25:40.111Z,3.50
2018-12-11T09:28:11.223Z,3.00
2018-12-11T09:30:37.872Z,3.30
2018-12-11T09:33:06.679Z,3.53
2018-12-11T09:35:35.506Z,2.60
2018-12-11T09:38:04.338Z,3.23
2018-12-11T09:40:33.189Z,3.73
2018-12-11T09:43:02.827Z,3.03
2018-12-11T09:45:31.665Z,2.20
2018-12-11T09:48:00.518Z,2.83
2018-12-11T09:50:29.313Z,2.40
2018-12-11T09:52:58.146Z,2.40
2018-12-11T09:55:27.205Z,2.70
2018-12-11T09:57:56.019Z,2.60
2018-12-11T10:00:26.587Z,2.80
2018-12-11T10:02:53.690Z,3.30
2018-12-11T10:05:22.551Z,3.60
2018-12-11T10:07:52.073Z,2.30
2018-12-11T10:10:20.901Z,2.27
2018-12-11T10:12:49.711Z,2.47
2018-12-11T10:15:18.524Z,2.27
2018-12-11T10:17:47.365Z,2.73
2018-12-11T10:20:17.159Z,2.37
2018-12-11T10:22:45.959Z,2.10
2018-12-11T10:25:14.763Z,2.00
2018-12-11T10:27:43.547Z,2.30
2018-12-11T10:30:12.375Z,2.47
2018-12-11T10:32:41.205Z,1.83
2018-12-11T10:35:10.008Z,2.43
2018-12-11T10:37:38.824Z,2.27
2018-12-11T10:40:08.578Z,2.77
2018-12-11T10:42:37.407Z,1.83
2018-12-11T10:45:06.332Z,2.67
2018-12-11T10:47:35.123Z,2.40
2018-12-11T10:50:03.967Z,2.47
2018-12-11T10:52:32.759Z,2.50
2018-12-11T10:55:01.559Z,2.73
2018-12-11T10:57:30.376Z,2.10
2018-12-11T10:59:59.211Z,2.10
2018-12-11T11:02:28.241Z,1.90
2018-12-11T11:04:57.032Z,2.40
2018-12-11T11:07:25.833Z,2.80
2018-12-11T11:09:54.623Z,2.67
2018-12-11T11:12:23.477Z,2.17
2018-12-11T11:14:52.258Z,2.40
2018-12-11T11:17:21.090Z,2.10
2018-12-11T11:19:49.929Z,2.27
2018-12-11T11:22:18.799Z,2.33
2018-12-11T11:24:47.657Z,2.93
2018-12-11T11:27:16.431Z,3.50
2018-12-11T11:29:45.251Z,2.17
2018-12-11T11:32:14.065Z,2.80
2018-12-11T11:34:42.868Z,2.17
2018-12-11T11:37:11.663Z,2.40
2018-12-11T11:39:41.022Z,2.30
2018-12-11T11:42:10.670Z,2.07
2018-12-11T11:44:39.477Z,2.30
2018-12-11T11:47:08.295Z,3.23
2018-12-11T11:49:37.137Z,2.63
2018-12-11T11:52:05.920Z,2.13
2018-12-11T11:54:34.700Z,2.20
2018-12-11T11:57:03.507Z,2.00
2018-12-11T11:59:32.512Z,1.93
2018-12-11T12:02:01.595Z,2.87
2018-12-11T12:04:30.378Z,2.30
2018-12-11T12:06:59.181Z,2.17
2018-12-11T12:09:28.003Z,2.63
2018-12-11T12:11:56.808Z,3.23
2018-12-11T12:14:25.596Z,2.00
2018-12-11T12:16:54.416Z,4.80
2018-12-11T12:19:23.227Z,2.90
2018-12-11T12:21:52.111Z,2.57
2018-12-11T12:24:21.875Z,2.07
2018-12-11T12:26:50.669Z,2.30
2018-12-11T12:29:19.747Z,2.60
2018-12-11T12:31:48.561Z,3.10
2018-12-11T12:34:17.406Z,2.53
2018-12-11T12:36:46.346Z,2.10
2018-12-11T12:39:15.124Z,2.13
2018-12-11T12:41:43.917Z,2.40
2018-12-11T12:44:12.735Z,2.17
2018-12-11T12:46:41.530Z,2.10
2018-12-11T12:49:10.345Z,2.83
2018-12-11T12:51:39.133Z,2.87
2018-12-11T12:54:07.924Z,2.37
2018-12-11T12:56:36.738Z,2.57
2018-12-11T12:59:05.523Z,2.37
2018-12-11T13:01:34.351Z,2.37
2018-12-11T13:04:03.147Z,3.07
2018-12-11T13:06:31.959Z,4.93
2018-12-11T13:09:01.310Z,2.53
2018-12-11T13:11:30.096Z,2.47
2018-12-11T13:13:58.900Z,1.77
2018-12-11T13:16:27.683Z,2.53
2018-12-11T13:18:57.700Z,2.93
2018-12-11T13:21:26.505Z,2.57
2018-12-11T13:23:55.309Z,2.33
2018-12-11T13:26:24.104Z,2.03
2018-12-11T13:28:52.962Z,2.70
2018-12-11T13:31:21.800Z,2.40
2018-12-11T13:33:50.590Z,3.17
2018-12-11T13:36:19.386Z,2.77
2018-12-11T13:38:48.193Z,2.40
2018-12-11T13:41:16.979Z,2.03
2018-12-11T13:43:45.766Z,1.73
2018-12-11T13:46:15.901Z,2.20
2018-12-11T13:48:44.673Z,2.23
2018-12-11T13:51:13.461Z,2.17
2018-12-11T13:53:43.184Z,2.90
2018-12-11T13:56:12.655Z,2.60
2018-12-11T13:58:41.446Z,2.47
2018-12-11T14:01:10.251Z,2.10
2018-12-11T14:03:39.038Z,2.83
2018-12-11T14:06:07.900Z,2.53
2018-12-11T14:08:36.694Z,2.67
2018-12-11T14:11:05.485Z,2.07
2018-12-11T14:13:34.288Z,2.70
2018-12-11T14:16:03.082Z,2.20
2018-12-11T14:18:31.868Z,2.50
2018-12-11T14:21:00.660Z,2.20
2018-12-11T14:23:29.481Z,2.50
2018-12-11T14:25:58.271Z,2.43
2018-12-11T14:28:27.151Z,2.53
2018-12-11T14:30:55.929Z,2.00
2018-12-11T14:33:24.802Z,2.67
2018-12-11T14:35:53.569Z,2.00
2018-12-11T14:38:22.351Z,3.43
2018-12-11T14:40:51.142Z,3.80
2018-12-11T14:43:19.935Z,2.30
2018-12-11T14:45:48.788Z,2.40
2018-12-11T14:48:17.597Z,2.53
2018-12-11T14:50:46.436Z,2.20
2018-12-11T14:53:15.231Z,2.53
2018-12-11T14:55:44.011Z,2.37
2018-12-11T14:58:12.817Z,2.53
2018-12-11T15:00:41.864Z,14.40
2018-12-11T15:03:11.164Z,3.43
2018-12-11T15:05:39.971Z,4.10
2018-12-11T15:08:08.764Z,2.77
2018-12-11T15:10:37.580Z,2.27
2018-12-11T15:13:06.392Z,2.47
2018-12-11T15:15:35.185Z,2.53
2018-12-11T15:18:03.977Z,2.17
2018-12-11T15:20:32.772Z,2.87
2018-12-11T15:23:01.568Z,2.40
2018-12-11T15:25:30.362Z,2.67
2018-12-11T15:27:59.157Z,3.67
2018-12-11T15:30:28.087Z,1.97
2018-12-11T15:32:56.919Z,2.40
2018-12-11T15:35:25.728Z,2.50
2018-12-11T15:37:54.511Z,2.70
2018-12-11T15:40:23.335Z,2.67
2018-12-11T15:42:52.194Z,2.33
2018-12-11T15:45:21.286Z,2.43
2018-12-11T15:47:50.042Z,2.30
2018-12-11T15:50:18.833Z,2.53
2018-12-11T15:52:47.702Z,3.03
2018-12-11T15:55:16.501Z,2.90
2018-12-11T15:57:45.307Z,2.43
2018-12-11T16:00:14.175Z,3.03
2018-12-11T16:02:42.937Z,2.83
2018-12-11T16:05:11.764Z,2.97
2018-12-11T16:07:40.544Z,3.53
2018-12-11T16:10:10.763Z,2.40
2018-12-11T16:12:42.527Z,3.73
2018-12-11T16:15:11.319Z,3.13
2018-12-11T16:17:40.144Z,3.93
2018-12-11T16:20:08.943Z,3.47
2018-12-11T16:22:37.759Z,3.00
2018-12-11T16:25:06.588Z,3.53
2018-12-11T16:27:35.395Z,2.80
2018-12-11T16:30:04.372Z,2.60
2018-12-11T16:32:33.167Z,3.40
2018-12-11T16:35:01.977Z,2.93
2018-12-11T16:37:30.762Z,4.03
2018-12-11T16:40:04.593Z,4.67
2018-12-11T16:42:28.674Z,5.20
2018-12-11T16:44:57.534Z,3.50
2018-12-11T16:47:26.323Z,3.70
2018-12-11T16:49:55.120Z,4.13
2018-12-11T16:52:23.960Z,3.73
2018-12-11T16:54:52.765Z,3.83
2018-12-11T16:57:21.625Z,3.77
2018-12-11T16:59:50.419Z,3.90
2018-12-11T17:02:19.254Z,3.13
2018-12-11T17:04:48.075Z,3.90
2018-12-11T17:07:16.985Z,5.57
2018-12-11T17:09:46.030Z,4.53
2018-12-11T17:12:14.829Z,4.07
2018-12-11T17:14:43.608Z,4.77
2018-12-11T17:17:12.403Z,4.00
2018-12-11T17:19:41.184Z,3.63
2018-12-11T17:22:10.005Z,3.83
2018-12-11T17:24:38.795Z,3.73
2018-12-11T17:27:07.640Z,3.37
2018-12-11T17:29:36.406Z,4.80
2018-12-11T17:32:07.296Z,4.07
2018-12-11T17:34:36.099Z,4.27
2018-12-11T17:37:04.897Z,4.83
2018-12-11T17:39:33.690Z,4.63
2018-12-11T17:42:03.868Z,4.30
2018-12-11T17:44:32.686Z,4.30
2018-12-11T17:47:01.485Z,4.27
2018-12-11T17:49:30.267Z,5.40
2018-12-11T17:51:59.059Z,7.90
2018-12-11T17:54:27.894Z,6.10
2018-12-11T17:56:56.782Z,6.67
2018-12-11T17:59:25.580Z,17.77
2018-12-11T18:01:58.663Z,14.27
2018-12-11T18:04:27.559Z,8.17
2018-12-11T18:06:56.401Z,10.17
2018-12-11T18:09:25.202Z,6.37
2018-12-11T18:11:53.994Z,6.07
2018-12-11T18:14:22.905Z,6.23
2018-12-11T18:16:51.685Z,6.53
2018-12-11T18:19:20.492Z,7.40
2018-12-11T18:21:49.369Z,5.37
2018-12-11T18:24:18.135Z,5.23
2018-12-11T18:26:47.643Z,5.00
2018-12-11T18:29:16.434Z,4.60
2018-12-11T18:31:45.238Z,4.30
2018-12-11T18:34:14.148Z,3.90
2018-12-11T18:36:42.956Z,4.10
2018-12-11T18:39:12.176Z,4.77
2018-12-11T18:41:41.000Z,5.70
2018-12-11T18:44:09.853Z,5.10
2018-12-11T18:46:38.660Z,4.90
2018-12-11T18:49:07.435Z,5.40
2018-12-11T18:51:37.470Z,5.83
2018-12-11T18:54:06.335Z,5.10
2018-12-11T18:56:35.130Z,5.90
2018-12-11T18:59:03.927Z,6.27
2018-12-11T19:01:32.733Z,6.73
2018-12-11T19:04:01.528Z,7.00
2018-12-11T19:06:30.319Z,19.60
2018-12-11T19:09:05.587Z,20.57
2018-12-11T19:11:27.980Z,17.83
2018-12-11T19:13:56.825Z,9.80
2018-12-11T19:16:25.668Z,9.80
2018-12-11T19:18:54.471Z,11.10
2018-12-11T19:21:23.280Z,10.17
2018-12-11T19:24:00.521Z,8.80
2018-12-11T19:26:29.316Z,7.20
2018-12-11T19:28:58.137Z,6.97
2018-12-11T19:31:27.060Z,7.60
2018-12-11T19:33:55.915Z,6.03
2018-12-11T19:36:24.726Z,5.73
2018-12-11T19:38:53.547Z,7.57
2018-12-11T19:41:22.344Z,7.33
2018-12-11T19:43:51.146Z,7.20
2018-12-11T19:46:19.952Z,6.70
2018-12-11T19:48:48.784Z,7.20
2018-12-11T19:51:17.575Z,7.53
2018-12-11T19:53:46.379Z,7.33
2018-12-11T19:56:15.151Z,9.13
2018-12-11T19:58:43.982Z,7.80
2018-12-11T20:01:12.813Z,8.20
2018-12-11T20:03:42.004Z,7.90
2018-12-11T20:06:11.408Z,8.33
2018-12-11T20:08:40.186Z,6.27
2018-12-11T20:11:09.042Z,6.30
2018-12-11T20:13:38.203Z,5.47
2018-12-11T20:16:06.995Z,5.40
2018-12-11T20:18:36.572Z,5.00
2018-12-11T20:21:05.365Z,7.53
2018-12-11T20:23:34.149Z,5.90
2018-12-11T20:26:02.962Z,5.83
2018-12-11T20:28:31.761Z,5.73
2018-12-11T20:31:00.815Z,5.00
2018-12-11T20:33:29.604Z,4.83
2018-12-11T20:35:58.391Z,5.00
2018-12-11T20:38:27.197Z,5.17
2018-12-11T20:40:55.983Z,5.80
2018-12-11T20:43:27.162Z,5.53
2018-12-11T20:45:56.014Z,4.77
2018-12-11T20:48:24.772Z,6.10
2018-12-11T20:50:59.707Z,5.70
2018-12-11T20:53:28.787Z,4.80
2018-12-11T20:56:01.398Z,4.67
2018-12-11T20:58:30.219Z,5.33
2018-12-11T21:00:59.582Z,3.90
2018-12-11T21:03:29.371Z,4.33
2018-12-11T21:05:58.759Z,5.20
2018-12-11T21:08:29.455Z,4.60
2018-12-11T21:10:58.289Z,4.73
2018-12-11T21:13:27.094Z,5.10
2018-12-11T21:15:55.842Z,5.60
2018-12-11T21:18:24.631Z,5.30
2018-12-11T21:20:53.412Z,5.17
2018-12-11T21:23:23.239Z,4.60
2018-12-11T21:25:52.130Z,5.80
2018-12-11T21:28:21.006Z,4.77
2018-12-11T21:30:50.151Z,5.13
2018-12-11T21:33:20.857Z,5.47
2018-12-11T21:35:49.663Z,5.70
2018-12-11T21:38:22.087Z,6.30
2018-12-11T21:40:51.647Z,6.07
2018-12-11T21:43:21.634Z,5.47
2018-12-11T21:45:50.438Z,17.77
2018-12-11T21:48:19.247Z,11.47
2018-12-11T21:50:48.162Z,15.73
2018-12-11T21:53:16.959Z,11.27
2018-12-11T21:55:45.751Z,13.13
2018-12-11T21:58:14.554Z,13.20
2018-12-11T22:00:43.359Z,16.97
2018-12-11T22:03:12.150Z,11.90
2018-12-11T22:05:41.091Z,12.57
2018-12-11T22:08:09.866Z,12.53
2018-12-11T22:10:40.875Z,11.30
2018-12-11T22:13:09.707Z,9.17
2018-12-11T22:15:38.603Z,10.30
2018-12-11T22:18:07.399Z,12.00
2018-12-11T22:20:37.581Z,8.57
2018-12-11T22:23:06.691Z,8.20
2018-12-11T22:25:36.253Z,9.00
2018-12-11T22:28:05.379Z,7.70
2018-12-11T22:30:34.185Z,10.00
2018-12-11T22:33:03.713Z,10.03
2018-12-11T22:35:33.685Z,9.37
2018-12-11T22:38:02.451Z,10.40
2018-12-11T22:40:31.242Z,9.33
2018-12-11T22:43:00.367Z,6.77
2018-12-11T22:45:29.156Z,8.60
2018-12-11T22:47:58.542Z,8.43
2018-12-11T22:50:27.965Z,8.10
2018-12-11T22:52:57.753Z,7.40
2018-12-11T22:55:27.172Z,7.33
2018-12-11T22:57:57.328Z,8.90
2018-12-11T23:00:26.270Z,8.07
2018-12-11T23:02:55.135Z,7.17
2018-12-11T23:05:24.056Z,6.47
2018-12-11T23:07:52.923Z,6.33
2018-12-11T23:10:21.802Z,7.30
2018-12-11T23:12:50.892Z,6.53
2018-12-11T23:15:19.739Z,6.47
2018-12-11T23:17:48.637Z,6.60
2018-12-11T23:20:19.126Z,6.77
2018-12-11T23:22:48.064Z,7.03
2018-12-11T23:25:17.091Z,6.13
2018-12-11T23:27:45.896Z,6.83
2018-12-11T23:30:15.112Z,6.20
2018-12-11T23:32:43.975Z,6.43
2018-12-11T23:35:12.987Z,6.67
2018-12-11T23:37:42.065Z,6.43
2018-12-11T23:40:11.004Z,7.83
2018-12-11T23:42:39.975Z,8.33
2018-12-11T23:45:08.968Z,7.97
2018-12-11T23:47:37.975Z,8.90
2018-12-11T23:50:07.154Z,6.67
2018-12-11T23:52:36.044Z,9.87
2018-12-11T23:55:06.315Z,8.23
2018-12-11T23:57:35.961Z,6.87
